Time;durP1;ratioP1;P1;durP2;ratioP2;P2;SDS_P1;SDS_P2;PMS_P1;PMS_P2;Temp;Humidity;BMP_temperature;BMP_pressure;BME280_temperature;BME280_humidity;BME280_pressure;Samples;Min_cycle;Max_cycle;Signal;HPM_P1;HPM_P2
2023/09/22 06:37:12;;;;;;;2.00;1.80;;;;;;;;;;5685130;23;20085;-75
2023/09/22 06:39:37;;;;;;;2.42;2.05;;;;;;;;;;4938648;29;20044;-73
2023/09/22 06:42:03;;;;;;;3.75;1.75;;;;;;;;;;4937740;29;20118;-74
2023/09/22 06:44:29;;;;;;;2.50;2.30;;;;;;;;;;4946090;29;20030;-73
2023/09/22 06:46:55;;;;;;;2.92;2.10;;;;;;;;;;4956563;28;20380;-73
2023/09/22 06:49:24;;;;;;;2.55;1.60;;;;;;;;;;4956779;28;20023;-72
2023/09/22 06:51:50;;;;;;;2.30;2.10;;;;;;;;;;4958448;28;20023;-72
2023/09/22 06:54:15;;;;;;;4.18;2.10;;;;;;;;;;4956795;28;20391;-71
2023/09/22 06:56:41;;;;;;;8.25;2.22;;;;;;;;;;4955727;28;20114;-71
2023/09/22 06:59:12;;;;;;;3.22;2.08;;;;;;;;;;4955455;28;20599;-72
2023/09/22 07:01:37;;;;;;;3.25;2.10;;;;;;;;;;4955994;28;20023;-73
2023/09/22 07:04:08;;;;;;;4.30;2.15;;;;;;;;;;4956705;28;20078;-73
2023/09/22 07:06:36;;;;;;;5.35;2.10;;;;;;;;;;4955333;28;20091;-73
2023/09/22 07:09:02;;;;;;;3.80;2.28;;;;;;;;;;4955587;28;20475;-73
2023/09/22 07:11:28;;;;;;;3.13;2.33;;;;;;;;;;4954961;28;20035;-73
2023/09/22 07:13:54;;;;;;;3.00;1.92;;;;;;;;;;4954663;28;20432;-73
2023/09/22 07:16:20;;;;;;;3.47;2.25;;;;;;;;;;4954999;28;20113;-73
2023/09/22 07:18:46;;;;;;;3.85;2.05;;;;;;;;;;4954980;28;20115;-73
2023/09/22 07:21:12;;;;;;;6.45;2.30;;;;;;;;;;4955054;28;20082;-73
2023/09/22 07:23:38;;;;;;;3.08;2.10;;;;;;;;;;4953757;29;20035;-73
2023/09/22 07:26:05;;;;;;;3.60;2.20;;;;;;;;;;4955558;28;20110;-72
2023/09/22 07:28:31;;;;;;;2.97;2.10;;;;;;;;;;4955392;28;20106;-72
2023/09/22 07:30:57;;;;;;;5.18;2.10;;;;;;;;;;4954125;28;20028;-72
2023/09/22 07:33:30;;;;;;;4.32;2.40;;;;;;;;;;4954616;28;20031;-72
2023/09/22 07:35:57;;;;;;;3.40;2.10;;;;;;;;;;4955092;28;20031;-72
2023/09/22 07:38:23;;;;;;;2.90;2.10;;;;;;;;;;4953699;28;20077;-71
2023/09/22 07:40:49;;;;;;;3.30;2.42;;;;;;;;;;4955061;28;20055;-72
2023/09/22 07:43:14;;;;;;;2.75;2.20;;;;;;;;;;4955082;28;20031;-72
2023/09/22 07:45:40;;;;;;;3.33;2.13;;;;;;;;;;4955684;28;20086;-72
2023/09/22 07:48:06;;;;;;;3.80;2.13;;;;;;;;;;4955662;28;20177;-72
2023/09/22 07:50:34;;;;;;;4.47;1.98;;;;;;;;;;4955577;28;20471;-73
2023/09/22 07:53:00;;;;;;;2.95;2.28;;;;;;;;;;4955274;28;20055;-72
2023/09/22 07:55:25;;;;;;;3.80;2.20;;;;;;;;;;4955203;28;20050;-72
2023/09/22 07:57:51;;;;;;;2.30;2.00;;;;;;;;;;4955403;28;20032;-72
2023/09/22 08:00:18;;;;;;;3.70;2.50;;;;;;;;;;4955168;28;20024;-72
2023/09/22 08:02:45;;;;;;;3.03;2.33;;;;;;;;;;4955299;28;20391;-72
2023/09/22 08:05:15;;;;;;;4.82;2.30;;;;;;;;;;4954389;28;20027;-72
2023/09/22 08:07:44;;;;;;;2.65;2.13;;;;;;;;;;4950451;29;20019;-72
2023/09/22 08:10:11;;;;;;;4.07;2.33;;;;;;;;;;4953504;28;20110;-72
2023/09/22 08:12:43;;;;;;;3.97;2.30;;;;;;;;;;4949521;29;20023;-72
2023/09/22 08:15:09;;;;;;;5.88;2.45;;;;;;;;;;4955493;28;20110;-71
2023/09/22 08:17:35;;;;;;;5.03;2.28;;;;;;;;;;4955329;28;20102;-73
2023/09/22 08:20:02;;;;;;;3.90;2.10;;;;;;;;;;4954406;28;20506;-70
2023/09/22 08:22:27;;;;;;;7.13;2.33;;;;;;;;;;4954568;28;20071;-72
2023/09/22 08:24:54;;;;;;;3.35;2.38;;;;;;;;;;4955041;28;20109;-69
2023/09/22 08:27:19;;;;;;;4.82;2.33;;;;;;;;;;4954199;28;20026;-69
2023/09/22 08:29:50;;;;;;;4.28;2.47;;;;;;;;;;4935640;28;20043;-71
2023/09/22 08:32:16;;;;;;;4.53;2.60;;;;;;;;;;4945189;28;20027;-71
2023/09/22 08:34:41;;;;;;;4.65;2.45;;;;;;;;;;4935334;29;20380;-74
2023/09/22 08:37:07;;;;;;;4.95;2.38;;;;;;;;;;4934920;29;20044;-70
2023/09/22 08:39:33;;;;;;;2.50;2.00;;;;;;;;;;4935460;29;20424;-71
2023/09/22 08:41:59;;;;;;;5.00;2.50;;;;;;;;;;4935588;29;20433;-70
2023/09/22 08:44:26;;;;;;;4.57;2.40;;;;;;;;;;4935596;29;20032;-70
2023/09/22 08:46:52;;;;;;;3.47;2.10;;;;;;;;;;4935304;29;20030;-70
2023/09/22 08:49:21;;;;;;;4.03;2.40;;;;;;;;;;4931876;29;20139;-71
2023/09/22 08:51:48;;;;;;;5.10;2.38;;;;;;;;;;4934111;29;20539;-71
2023/09/22 08:54:13;;;;;;;4.97;2.30;;;;;;;;;;4935459;29;20039;-71
2023/09/22 08:56:40;;;;;;;4.85;2.67;;;;;;;;;;4935199;29;20460;-71
2023/09/22 08:59:08;;;;;;;4.55;2.50;;;;;;;;;;4935112;29;20028;-71
2023/09/22 09:01:34;;;;;;;3.63;2.67;;;;;;;;;;4935221;29;20548;-71
2023/09/22 09:04:32;;;;;;;4.40;2.60;;;;;;;;;;4934957;29;20055;-71
2023/09/22 09:06:58;;;;;;;7.10;2.80;;;;;;;;;;4935162;29;20560;-71
2023/09/22 09:09:24;;;;;;;9.57;2.35;;;;;;;;;;4935028;29;20059;-72
2023/09/22 09:12:02;;;;;;;7.13;3.00;;;;;;;;;;4935029;29;20024;-72
2023/09/22 09:14:28;;;;;;;6.03;2.50;;;;;;;;;;4952298;29;20074;-71
2023/09/22 09:16:57;;;;;;;5.53;2.85;;;;;;;;;;4954192;28;20055;-71
2023/09/22 09:19:26;;;;;;;6.47;2.63;;;;;;;;;;4954383;28;20031;-71
2023/09/22 09:22:12;;;;;;;4.53;2.53;;;;;;;;;;4956628;28;20041;-70
2023/09/22 09:24:38;;;;;;;5.35;2.65;;;;;;;;;;4957939;28;20365;-71
2023/09/22 09:27:18;;;;;;;9.68;2.90;;;;;;;;;;4958180;28;20090;-72
2023/09/22 09:29:46;;;;;;;4.38;2.38;;;;;;;;;;4957188;28;20031;-72
2023/09/22 09:32:25;;;;;;;5.43;2.50;;;;;;;;;;4955510;28;20038;-72
2023/09/22 09:34:51;;;;;;;5.78;2.72;;;;;;;;;;4957494;28;20094;-74
2023/09/22 09:37:17;;;;;;;7.97;3.03;;;;;;;;;;4956273;28;20137;-73
2023/09/22 09:39:48;;;;;;;4.65;2.60;;;;;;;;;;4957399;28;20114;-73
2023/09/22 09:42:18;;;;;;;6.43;2.70;;;;;;;;;;4958021;28;20027;-73
2023/09/22 09:44:51;;;;;;;5.20;2.45;;;;;;;;;;4958385;28;20090;-73
2023/09/22 09:47:22;;;;;;;6.05;3.03;;;;;;;;;;4957687;28;20075;-74
2023/09/22 09:49:52;;;;;;;5.75;2.83;;;;;;;;;;4958097;28;20102;-73
2023/09/22 09:52:24;;;;;;;4.75;2.97;;;;;;;;;;4958196;28;20030;-73
2023/09/22 09:54:59;;;;;;;6.95;2.63;;;;;;;;;;4957957;28;20121;-74
2023/09/22 09:57:26;;;;;;;5.55;2.78;;;;;;;;;;4958132;28;20034;-73
2023/09/22 09:59:52;;;;;;;6.50;3.33;;;;;;;;;;4958446;28;20067;-74
2023/09/22 10:02:20;;;;;;;5.43;2.63;;;;;;;;;;4959069;28;20054;-74
2023/09/22 10:04:47;;;;;;;4.97;2.63;;;;;;;;;;4958641;28;20437;-73
2023/09/22 10:07:15;;;;;;;3.47;2.67;;;;;;;;;;4957940;28;20031;-73
2023/09/22 10:09:40;;;;;;;9.13;3.05;;;;;;;;;;4957878;28;20027;-74
2023/09/22 10:12:06;;;;;;;5.53;3.00;;;;;;;;;;4957626;28;20395;-74
2023/09/22 10:14:51;;;;;;;5.60;3.10;;;;;;;;;;4957898;28;20032;-74
2023/09/22 10:17:24;;;;;;;5.20;2.88;;;;;;;;;;4957642;28;20027;-74
2023/09/22 10:19:50;;;;;;;5.30;2.92;;;;;;;;;;4958212;28;20110;-74
2023/09/22 10:22:16;;;;;;;12.18;3.03;;;;;;;;;;4943088;28;20297;-73
2023/09/22 10:24:42;;;;;;;4.90;3.03;;;;;;;;;;4956635;28;20031;-74
2023/09/22 10:27:14;;;;;;;7.57;3.00;;;;;;;;;;4956077;28;20028;-73
2023/09/22 10:29:51;;;;;;;6.18;2.60;;;;;;;;;;4945325;29;20058;-72
2023/09/22 10:32:16;;;;;;;5.28;2.50;;;;;;;;;;4955789;28;20028;-73
2023/09/22 10:34:51;;;;;;;5.45;2.53;;;;;;;;;;4956413;28;20548;-73
2023/09/22 10:37:18;;;;;;;5.68;3.20;;;;;;;;;;4956268;28;20049;-74
2023/09/22 10:39:53;;;;;;;4.13;2.53;;;;;;;;;;4957042;28;20361;-73
2023/09/22 10:42:20;;;;;;;4.65;2.88;;;;;;;;;;4956921;28;20141;-74
2023/09/22 10:44:58;;;;;;;8.38;3.10;;;;;;;;;;4957160;28;20480;-74
2023/09/22 10:47:45;;;;;;;6.40;2.97;;;;;;;;;;4957119;28;20475;-73
2023/09/22 10:50:10;;;;;;;6.13;2.50;;;;;;;;;;4957845;28;20118;-73
2023/09/22 10:52:36;;;;;;;7.38;3.00;;;;;;;;;;4956585;28;20081;-73
2023/09/22 10:55:05;;;;;;;5.38;2.72;;;;;;;;;;4956473;28;20525;-73
2023/09/22 10:57:31;;;;;;;4.13;2.70;;;;;;;;;;4956623;28;20031;-73
2023/09/22 10:59:57;;;;;;;6.43;2.78;;;;;;;;;;4956225;28;20098;-74
2023/09/22 11:02:29;;;;;;;14.57;3.58;;;;;;;;;;4918014;29;20060;-75
2023/09/22 11:04:55;;;;;;;8.68;3.03;;;;;;;;;;4916850;29;20024;-74
2023/09/22 11:07:33;;;;;;;11.40;3.15;;;;;;;;;;4918332;29;20536;-73
2023/09/22 11:10:00;;;;;;;7.28;2.88;;;;;;;;;;4918144;29;20029;-75
2023/09/22 11:12:29;;;;;;;8.68;3.10;;;;;;;;;;4940922;29;20042;-77
2023/09/22 11:15:00;;;;;;;11.85;4.05;;;;;;;;;;4955378;28;20083;-76
2023/09/22 11:17:40;;;;;;;14.02;3.22;;;;;;;;;;4950953;29;20027;-74
2023/09/22 11:20:12;;;;;;;11.98;3.10;;;;;;;;;;4956058;28;20106;-75
2023/09/22 11:22:38;;;;;;;9.13;3.42;;;;;;;;;;4956118;28;20412;-75
2023/09/22 11:25:07;;;;;;;16.63;4.07;;;;;;;;;;4955756;28;20027;-76
2023/09/22 11:27:40;;;;;;;14.55;3.47;;;;;;;;;;4955787;28;20484;-75
2023/09/22 11:30:20;;;;;;;11.80;3.30;;;;;;;;;;4954553;29;20027;-74
2023/09/22 11:32:47;;;;;;;14.10;3.85;;;;;;;;;;4955912;28;20031;-75
2023/09/22 11:35:39;;;;;;;11.18;3.70;;;;;;;;;;4955844;28;20035;-76
2023/09/22 11:38:23;;;;;;;19.17;3.78;;;;;;;;;;4955459;28;20061;-75
2023/09/22 11:40:50;;;;;;;12.52;4.05;;;;;;;;;;4955434;28;20027;-75
2023/09/22 11:43:16;;;;;;;15.52;4.30;;;;;;;;;;4950432;28;20036;-74
2023/09/22 11:45:41;;;;;;;13.73;3.90;;;;;;;;;;4936435;29;20378;-74
2023/09/22 11:48:07;;;;;;;16.05;3.92;;;;;;;;;;4936202;29;20028;-75
2023/09/22 11:50:33;;;;;;;14.63;3.85;;;;;;;;;;4936165;29;20070;-76
2023/09/22 11:53:17;;;;;;;13.77;4.05;;;;;;;;;;4934632;29;20106;-72
2023/09/22 11:55:47;;;;;;;9.70;3.55;;;;;;;;;;4936422;29;20488;-72
2023/09/22 11:58:14;;;;;;;10.07;3.47;;;;;;;;;;4936202;29;20035;-72
2023/09/22 12:00:40;;;;;;;22.10;4.15;;;;;;;;;;4937065;29;20040;-72
2023/09/22 12:03:06;;;;;;;13.02;4.20;;;;;;;;;;4937766;29;20458;-72
2023/09/22 12:05:36;;;;;;;14.82;4.57;;;;;;;;;;4936300;29;20044;-72
2023/09/22 12:08:04;;;;;;;13.88;3.92;;;;;;;;;;4936411;29;20024;-72
2023/09/22 12:10:29;;;;;;;16.15;3.55;;;;;;;;;;4936578;29;20028;-73
2023/09/22 12:12:55;;;;;;;18.13;4.40;;;;;;;;;;4935812;29;20028;-71
2023/09/22 12:15:20;;;;;;;15.63;4.07;;;;;;;;;;4935735;29;20023;-71
2023/09/22 12:17:46;;;;;;;24.05;4.15;;;;;;;;;;4935792;29;20403;-71
2023/09/22 12:20:12;;;;;;;45.70;11.52;;;;;;;;;;4935715;29;20020;-72
2023/09/22 12:22:38;;;;;;;24.77;5.63;;;;;;;;;;4935847;29;20115;-72
2023/09/22 12:25:04;;;;;;;20.40;4.93;;;;;;;;;;4935698;29;20111;-73
2023/09/22 12:27:32;;;;;;;18.48;4.53;;;;;;;;;;4935802;29;20023;-72
2023/09/22 12:29:57;;;;;;;20.45;4.25;;;;;;;;;;4933851;29;20380;-76
2023/09/22 12:32:23;;;;;;;19.67;4.68;;;;;;;;;;4934957;29;20165;-72
2023/09/22 12:34:50;;;;;;;16.42;4.18;;;;;;;;;;4935546;29;20028;-71
2023/09/22 12:37:15;;;;;;;11.38;3.42;;;;;;;;;;4935242;29;20047;-73
2023/09/22 12:39:41;;;;;;;13.00;3.92;;;;;;;;;;4935676;29;20106;-72
2023/09/22 12:42:06;;;;;;;8.75;3.58;;;;;;;;;;4935645;29;20054;-73
2023/09/22 12:44:33;;;;;;;11.75;3.50;;;;;;;;;;4935564;29;20388;-72
2023/09/22 12:46:59;;;;;;;12.75;3.58;;;;;;;;;;4935390;29;20028;-72
2023/09/22 12:49:24;;;;;;;11.65;3.05;;;;;;;;;;4935344;29;20023;-72
2023/09/22 12:51:50;;;;;;;13.00;3.33;;;;;;;;;;4935255;29;20035;-72
2023/09/22 12:54:15;;;;;;;11.25;3.22;;;;;;;;;;4935318;29;20031;-72
